createdAt,value
2017-10-02T00:00:46.343Z,0
2017-10-02T00:01:56.373Z,0
2017-10-02T00:03:06.710Z,0
2017-10-02T00:04:16.743Z,0
2017-10-02T00:05:27.066Z,0
2017-10-02T00:06:37.090Z,0
2017-10-02T00:07:47.431Z,0
2017-10-02T00:08:57.768Z,0
2017-10-02T00:10:07.789Z,0
2017-10-02T00:11:18.188Z,0
2017-10-02T00:12:28.528Z,0
2017-10-02T00:13:38.846Z,0
2017-10-02T00:14:49.201Z,0
2017-10-02T00:15:59.530Z,0
2017-10-02T00:17:09.863Z,0
2017-10-02T00:18:20.198Z,0
2017-10-02T00:19:30.514Z,0
2017-10-02T00:20:40.852Z,0
2017-10-02T00:21:51.179Z,0
2017-10-02T00:23:01.230Z,0
2017-10-02T00:24:11.244Z,0
2017-10-02T00:25:21.255Z,0
2017-10-02T00:26:31.281Z,0
2017-10-02T00:27:41.662Z,0
2017-10-02T00:28:52.018Z,0
2017-10-02T00:30:02.349Z,0
2017-10-02T00:31:12.688Z,0
2017-10-02T00:32:23.015Z,0
2017-10-02T00:33:33.042Z,0
2017-10-02T00:34:43.432Z,0
2017-10-02T00:35:53.762Z,0
2017-10-02T00:37:04.097Z,0
2017-10-02T00:38:14.446Z,0
2017-10-02T00:39:24.476Z,0
2017-10-02T00:40:34.802Z,0
2017-10-02T00:41:45.132Z,0
2017-10-02T00:42:55.458Z,0
2017-10-02T00:44:05.792Z,0
2017-10-02T00:45:16.118Z,0
2017-10-02T00:46:26.129Z,0
2017-10-02T00:47:36.478Z,0
2017-10-02T00:48:46.814Z,0
2017-10-02T00:49:57.151Z,0
2017-10-02T00:51:07.172Z,0
2017-10-02T00:52:17.202Z,0
2017-10-02T00:53:27.535Z,0
2017-10-02T00:54:37.867Z,0
2017-10-02T00:55:47.881Z,0
2017-10-02T00:56:58.212Z,0
2017-10-02T00:58:08.599Z,0
2017-10-02T00:59:18.928Z,0
2017-10-02T01:00:29.262Z,0
2017-10-02T01:01:39.603Z,0
2017-10-02T01:02:49.642Z,0
2017-10-02T01:03:59.707Z,0
2017-10-02T01:05:09.724Z,0
2017-10-02T01:06:20.058Z,0
2017-10-02T01:07:30.079Z,0
2017-10-02T01:08:40.409Z,0
2017-10-02T01:09:50.472Z,0
2017-10-02T01:11:00.798Z,0
2017-10-02T01:12:11.125Z,0
2017-10-02T01:13:21.448Z,0
2017-10-02T01:14:31.788Z,0
2017-10-02T01:15:41.859Z,0
2017-10-02T01:16:51.874Z,0
2017-10-02T01:18:01.894Z,0
2017-10-02T01:19:12.233Z,0
2017-10-02T01:20:22.262Z,0
2017-10-02T01:21:31.946Z,0
2017-10-02T01:22:42.279Z,0
2017-10-02T01:23:52.639Z,0
2017-10-02T01:25:02.977Z,0
2017-10-02T01:26:13.312Z,0
2017-10-02T01:27:23.373Z,0
2017-10-02T01:28:33.739Z,0
2017-10-02T01:29:44.065Z,0
2017-10-02T01:30:54.407Z,0
2017-10-02T01:32:04.431Z,0
2017-10-02T01:33:14.130Z,0
2017-10-02T01:34:24.145Z,0
2017-10-02T01:35:34.476Z,0
2017-10-02T01:36:44.828Z,0
2017-10-02T01:37:55.149Z,0
2017-10-02T01:39:05.525Z,0
2017-10-02T01:40:15.890Z,0
2017-10-02T01:41:26.217Z,0
2017-10-02T01:42:36.243Z,0
2017-10-02T01:43:46.565Z,0
2017-10-02T01:44:56.910Z,0
2017-10-02T01:46:06.645Z,0
2017-10-02T01:47:16.986Z,0
2017-10-02T01:48:27.323Z,0
2017-10-02T01:49:37.333Z,0
2017-10-02T01:50:47.676Z,0
2017-10-02T01:51:58.008Z,0
2017-10-02T01:53:08.360Z,0
2017-10-02T01:54:18.374Z,0
2017-10-02T01:55:28.708Z,0
2017-10-02T01:56:38.778Z,0
2017-10-02T01:57:48.796Z,0
2017-10-02T01:58:59.136Z,0
2017-10-02T02:00:09.156Z,0
2017-10-02T02:01:19.494Z,0
2017-10-02T02:02:29.814Z,0
2017-10-02T02:03:40.158Z,0
2017-10-02T02:04:50.204Z,0
2017-10-02T02:06:00.207Z,0
2017-10-02T02:07:10.535Z,0
2017-10-02T02:08:20.913Z,0
2017-10-02T02:09:30.950Z,0
2017-10-02T02:10:41.280Z,0
2017-10-02T02:11:51.639Z,0
2017-10-02T02:13:01.646Z,0
2017-10-02T02:14:11.985Z,0
2017-10-02T02:15:21.989Z,0
2017-10-02T02:16:32.322Z,0
2017-10-02T02:17:42.334Z,0
2017-10-02T02:18:52.669Z,0
2017-10-02T02:20:03.007Z,0
2017-10-02T02:21:13.341Z,0
2017-10-02T02:22:23.668Z,0
2017-10-02T02:23:33.991Z,0
2017-10-02T02:24:44.333Z,0
2017-10-02T02:25:54.730Z,0
2017-10-02T02:27:05.055Z,0
2017-10-02T02:28:15.387Z,0
2017-10-02T02:29:25.721Z,0
2017-10-02T02:30:36.052Z,0
2017-10-02T02:31:46.458Z,0
2017-10-02T02:32:56.808Z,0
2017-10-02T02:34:07.125Z,0
2017-10-02T02:35:17.486Z,0
2017-10-02T02:36:27.836Z,0
2017-10-02T02:37:38.163Z,0
2017-10-02T02:38:48.189Z,0
2017-10-02T02:39:58.540Z,0
2017-10-02T02:41:08.881Z,0
2017-10-02T02:42:18.910Z,0
2017-10-02T02:43:29.588Z,0
2017-10-02T02:44:39.916Z,0
2017-10-02T02:45:49.936Z,0
2017-10-02T02:47:00.272Z,0
2017-10-02T02:48:10.288Z,0
2017-10-02T02:49:20.616Z,0
2017-10-02T02:50:30.635Z,0
2017-10-02T02:51:40.974Z,0
2017-10-02T02:52:50.996Z,0
2017-10-02T02:54:01.333Z,0
2017-10-02T02:55:11.341Z,0
2017-10-02T02:56:21.668Z,0
2017-10-02T02:57:32.012Z,0
2017-10-02T02:58:42.026Z,0
2017-10-02T02:59:52.051Z,0
2017-10-02T03:01:02.380Z,0
2017-10-02T03:02:12.382Z,0
2017-10-02T03:33:45.657Z,0
2017-10-02T03:34:55.989Z,0
2017-10-02T03:36:05.997Z,0
2017-10-02T03:37:16.309Z,0
2017-10-02T03:38:26.334Z,0
2017-10-02T03:39:36.659Z,0
2017-10-02T03:40:46.355Z,0
2017-10-02T03:41:56.725Z,0
2017-10-02T03:43:07.071Z,0
2017-10-02T03:44:17.089Z,0
2017-10-02T03:45:27.407Z,0
2017-10-02T03:46:37.741Z,0
2017-10-02T03:47:47.799Z,0
2017-10-02T03:48:57.803Z,0
2017-10-02T03:50:08.140Z,0
2017-10-02T03:51:18.466Z,0
2017-10-02T03:52:28.796Z,0
2017-10-02T03:53:39.113Z,0
2017-10-02T03:54:48.816Z,0
2017-10-02T03:55:59.181Z,0
2017-10-02T03:57:09.190Z,0
2017-10-02T03:58:19.521Z,0
2017-10-02T03:59:29.848Z,0
2017-10-02T04:00:40.245Z,0
2017-10-02T04:01:50.585Z,0
2017-10-02T04:03:00.603Z,0
2017-10-02T04:04:10.944Z,0
2017-10-02T04:05:21.281Z,0
2017-10-02T04:06:31.372Z,0
2017-10-02T04:07:41.060Z,0
2017-10-02T04:08:51.395Z,0
2017-10-02T04:10:01.720Z,0
2017-10-02T04:11:11.744Z,0
2017-10-02T04:12:22.124Z,0
2017-10-02T04:13:32.463Z,0
2017-10-02T04:14:42.785Z,0
2017-10-02T04:15:52.801Z,0
2017-10-02T04:17:03.130Z,0
2017-10-02T04:18:13.210Z,0
2017-10-02T04:19:23.538Z,0
2017-10-02T04:20:33.855Z,0
2017-10-02T04:21:44.175Z,0
2017-10-02T04:22:54.191Z,4
2017-10-02T04:24:04.588Z,4
2017-10-02T04:25:14.613Z,0
2017-10-02T04:26:24.933Z,0
2017-10-02T04:27:35.258Z,4
2017-10-02T04:28:44.964Z,4
2017-10-02T04:29:55.347Z,4
2017-10-02T04:31:05.049Z,4
2017-10-02T04:32:15.366Z,4
2017-10-02T04:33:25.710Z,8
2017-10-02T04:34:36.039Z,8
2017-10-02T04:35:46.371Z,8
2017-10-02T04:36:56.715Z,12
2017-10-02T04:38:07.071Z,16
2017-10-02T04:39:17.075Z,16
2017-10-02T04:40:27.109Z,20
2017-10-02T04:41:37.442Z,24
2017-10-02T04:42:47.464Z,28
2017-10-02T04:43:57.795Z,36
2017-10-02T04:45:07.824Z,40
2017-10-02T04:46:17.855Z,44
2017-10-02T04:47:27.605Z,56
2017-10-02T04:48:37.613Z,64
2017-10-02T04:49:47.942Z,76
2017-10-02T04:50:58.280Z,88
2017-10-02T04:52:08.611Z,100
2017-10-02T04:53:19.012Z,116
2017-10-02T04:54:29.334Z,132
2017-10-02T04:55:39.041Z,144
2017-10-02T04:56:49.059Z,164
2017-10-02T04:57:59.399Z,184
2017-10-02T04:59:09.733Z,200
2017-10-02T05:00:19.775Z,220
2017-10-02T05:01:30.114Z,244
2017-10-02T05:02:40.126Z,268
2017-10-02T05:03:50.163Z,296
2017-10-02T05:05:00.491Z,320
2017-10-02T05:06:10.825Z,344
2017-10-02T05:07:21.161Z,372
2017-10-02T05:08:31.492Z,396
2017-10-02T05:09:41.822Z,428
2017-10-02T05:10:52.147Z,456
2017-10-02T05:12:02.196Z,488
2017-10-02T05:13:12.252Z,516
2017-10-02T05:14:22.261Z,548
2017-10-02T05:15:32.280Z,580
2017-10-02T05:16:42.621Z,612
2017-10-02T05:17:52.344Z,644
2017-10-02T05:19:02.671Z,676
2017-10-02T05:20:12.688Z,708
2017-10-02T05:21:22.690Z,744
2017-10-02T05:22:32.759Z,776
2017-10-02T05:23:43.089Z,808
2017-10-02T05:24:53.095Z,840
2017-10-02T05:26:03.428Z,872
2017-10-02T05:27:13.773Z,904
2017-10-02T05:28:23.836Z,936
2017-10-02T05:29:34.178Z,968
2017-10-02T05:30:44.510Z,1004
2017-10-02T05:31:54.847Z,1036
2017-10-02T05:33:05.181Z,1068
2017-10-02T05:34:15.571Z,1100
2017-10-02T05:35:25.907Z,1132
2017-10-02T05:36:36.240Z,1164
2017-10-02T05:37:46.575Z,1200
2017-10-02T05:38:56.591Z,1236
2017-10-02T05:40:06.972Z,1268
2017-10-02T05:41:16.990Z,1300
2017-10-02T05:42:27.357Z,1336
2017-10-02T05:43:37.704Z,1368
2017-10-02T05:44:47.723Z,1400
2017-10-02T05:45:57.738Z,1436
2017-10-02T05:47:08.088Z,1468
2017-10-02T05:48:18.111Z,1500
2017-10-02T05:49:28.447Z,1532
2017-10-02T05:50:38.766Z,1560
2017-10-02T05:51:49.158Z,1592
2017-10-02T05:52:59.169Z,1616
2017-10-02T05:54:09.505Z,1648
2017-10-02T05:55:19.643Z,1680
2017-10-02T05:56:29.972Z,1712
2017-10-02T05:57:40.303Z,1740
2017-10-02T05:58:50.638Z,1772
2017-10-02T06:00:00.334Z,1800
2017-10-02T06:01:10.670Z,1828
2017-10-02T06:02:21.012Z,1852
2017-10-02T06:03:31.034Z,1884
2017-10-02T06:04:41.393Z,1916
2017-10-02T06:05:51.727Z,1948
2017-10-02T06:07:02.064Z,1984
2017-10-02T06:08:12.396Z,2016
2017-10-02T06:09:22.782Z,2040
2017-10-02T06:10:32.786Z,2076
2017-10-02T06:11:43.122Z,2112
2017-10-02T06:12:52.822Z,2136
2017-10-02T06:14:02.839Z,2168
2017-10-02T06:15:13.226Z,2196
2017-10-02T06:16:23.577Z,2236
2017-10-02T06:17:34.596Z,2276
2017-10-02T06:18:44.927Z,2308
2017-10-02T06:19:55.272Z,2340
2017-10-02T06:21:05.678Z,2372
2017-10-02T06:22:16.002Z,2412
2017-10-02T06:23:26.326Z,2444
2017-10-02T06:24:36.670Z,2480
2017-10-02T06:25:47.007Z,2512
2017-10-02T06:26:57.353Z,2540
2017-10-02T06:28:07.690Z,2568
2017-10-02T06:29:17.724Z,2604
2017-10-02T06:30:27.435Z,2624
2017-10-02T06:31:37.768Z,2660
2017-10-02T06:32:47.837Z,2692
2017-10-02T06:33:57.881Z,2716
2017-10-02T06:35:08.224Z,2740
2017-10-02T06:36:18.236Z,2768
2017-10-02T06:37:28.581Z,2808
2017-10-02T06:38:38.621Z,2836
2017-10-02T06:39:48.632Z,2872
2017-10-02T06:40:58.976Z,2900
2017-10-02T06:42:08.994Z,2912
2017-10-02T06:43:19.000Z,2948
2017-10-02T06:44:29.398Z,2972
2017-10-02T06:45:39.757Z,3000
2017-10-02T06:46:50.091Z,3032
2017-10-02T06:48:00.417Z,3068
2017-10-02T06:49:10.789Z,3096
2017-10-02T06:50:21.112Z,3112
2017-10-02T06:51:31.145Z,3144
2017-10-02T06:52:41.477Z,3164
2017-10-02T06:53:51.799Z,3188
2017-10-02T06:55:02.141Z,3208
2017-10-02T06:56:12.198Z,3236
2017-10-02T06:57:22.239Z,3260
2017-10-02T06:58:32.576Z,3284
2017-10-02T06:59:42.898Z,3312
2017-10-02T07:00:52.935Z,3336
2017-10-02T07:02:03.341Z,3364
2017-10-02T07:03:13.678Z,3396
2017-10-02T07:04:24.015Z,3412
2017-10-02T07:05:33.703Z,3432
2017-10-02T07:06:43.088Z,3468
2017-10-02T07:07:53.165Z,3492
2017-10-02T07:09:03.185Z,3504
2017-10-02T07:10:13.508Z,3532
2017-10-02T07:11:23.835Z,3568
2017-10-02T07:12:34.169Z,3584
2017-10-02T07:13:44.556Z,3604
2017-10-02T07:14:55.863Z,3632
2017-10-02T07:16:05.897Z,3660
2017-10-02T07:17:15.914Z,3688
2017-10-02T07:18:26.280Z,3724
2017-10-02T07:19:36.353Z,3744
2017-10-02T07:20:46.691Z,3764
2017-10-02T07:21:57.053Z,3804
2017-10-02T07:23:07.394Z,3816
2017-10-02T07:24:17.721Z,3836
2017-10-02T07:25:28.087Z,3868
2017-10-02T07:26:38.112Z,3884
2017-10-02T07:27:48.460Z,3908
2017-10-02T07:28:58.806Z,3928
2017-10-02T07:30:09.164Z,3960
2017-10-02T07:31:19.560Z,3988
2017-10-02T07:32:29.906Z,4008
2017-10-02T07:33:40.254Z,4036
2017-10-02T07:34:50.606Z,4068
2017-10-02T07:36:00.954Z,4104
2017-10-02T07:37:11.344Z,4128
2017-10-02T07:38:21.387Z,4160
2017-10-02T07:39:31.410Z,4176
2017-10-02T07:40:41.437Z,4200
2017-10-02T07:41:51.787Z,4228
2017-10-02T07:43:02.271Z,4256
2017-10-02T07:44:12.627Z,4296
2017-10-02T07:45:22.984Z,4324
2017-10-02T07:46:33.329Z,4352
2017-10-02T07:47:43.681Z,4392
2017-10-02T07:48:53.693Z,4400
2017-10-02T07:50:03.716Z,4428
2017-10-02T07:51:13.746Z,4460
2017-10-02T07:52:23.762Z,4500
2017-10-02T07:53:34.131Z,4532
2017-10-02T07:54:44.481Z,4516
2017-10-02T07:55:54.508Z,4560
2017-10-02T07:57:04.535Z,4580
2017-10-02T07:58:14.571Z,4616
2017-10-02T07:59:24.934Z,4656
2017-10-02T08:00:35.328Z,4684
2017-10-02T08:01:45.679Z,4700
2017-10-02T08:02:56.014Z,4716
2017-10-02T08:04:06.905Z,4732
2017-10-02T08:05:17.246Z,4764
2017-10-02T08:06:27.631Z,4796
2017-10-02T08:07:37.969Z,4828
2017-10-02T08:08:48.316Z,4844
2017-10-02T08:09:58.654Z,4868
2017-10-02T08:11:08.695Z,4892
2017-10-02T08:12:19.077Z,4936
2017-10-02T08:13:29.399Z,4944
2017-10-02T08:14:39.757Z,4968
2017-10-02T08:15:49.777Z,4992
2017-10-02T08:17:00.116Z,5012
2017-10-02T08:18:10.518Z,5036
2017-10-02T08:19:20.736Z,5068
2017-10-02T08:20:31.109Z,5092
2017-10-02T08:21:41.524Z,5124
2017-10-02T08:22:51.921Z,5144
2017-10-02T08:24:02.347Z,5148
2017-10-02T08:25:12.720Z,5172
2017-10-02T08:26:23.138Z,5208
2017-10-02T08:27:33.169Z,5236
2017-10-02T08:28:43.527Z,5256
2017-10-02T08:29:53.891Z,5288
2017-10-02T08:31:03.924Z,5248
2017-10-02T08:32:14.305Z,5244
2017-10-02T08:33:24.714Z,5312
2017-10-02T08:34:35.108Z,5312
2017-10-02T08:35:45.215Z,5376
2017-10-02T08:36:55.575Z,5360
2017-10-02T08:38:05.319Z,5384
2017-10-02T08:39:15.151Z,5412
2017-10-02T08:40:25.554Z,5428
2017-10-02T08:41:35.980Z,5444
2017-10-02T08:42:46.065Z,5448
2017-10-02T08:43:56.437Z,5488
2017-10-02T08:45:06.814Z,5508
2017-10-02T08:46:17.299Z,5516
2017-10-02T08:47:27.409Z,5536
2017-10-02T08:48:37.781Z,5568
2017-10-02T08:49:47.850Z,5592
2017-10-02T08:50:58.251Z,5624
2017-10-02T08:52:08.641Z,5632
2017-10-02T08:53:19.048Z,5644
2017-10-02T08:54:29.438Z,5664
2017-10-02T08:55:39.798Z,5696
2017-10-02T08:56:50.178Z,5720
2017-10-02T08:58:00.551Z,5716
2017-10-02T08:59:10.945Z,5740
2017-10-02T09:00:21.308Z,5768
2017-10-02T09:01:31.076Z,5788
2017-10-02T09:02:41.463Z,5792
2017-10-02T09:03:51.850Z,5840
2017-10-02T09:05:01.943Z,5848
2017-10-02T09:06:12.308Z,5872
2017-10-02T09:07:22.344Z,5880
2017-10-02T09:08:32.718Z,5868
2017-10-02T09:09:42.776Z,5940
2017-10-02T09:10:53.214Z,5948
2017-10-02T09:12:02.955Z,5896
2017-10-02T09:13:13.338Z,5888
2017-10-02T09:14:23.699Z,5952
2017-10-02T09:15:34.057Z,5944
2017-10-02T09:16:44.479Z,5972
2017-10-02T09:17:54.860Z,5980
2017-10-02T09:19:05.242Z,6024
2017-10-02T09:20:15.293Z,6088
2017-10-02T09:21:25.634Z,6132
2017-10-02T09:22:35.720Z,6132
2017-10-02T09:23:45.769Z,6164
2017-10-02T09:24:56.026Z,6148
2017-10-02T09:26:06.072Z,6136
2017-10-02T09:27:16.442Z,6192
2017-10-02T09:28:26.789Z,6212
2017-10-02T09:29:36.831Z,6216
2017-10-02T09:30:47.206Z,6224
2017-10-02T09:31:57.561Z,6288
2017-10-02T09:33:07.613Z,6348
2017-10-02T09:34:17.082Z,6340
2017-10-02T09:35:27.133Z,6336
2017-10-02T09:36:37.488Z,6364
2017-10-02T09:37:47.875Z,6356
2017-10-02T09:38:58.228Z,6392
2017-10-02T09:40:08.639Z,6380
2017-10-02T09:41:18.986Z,6432
2017-10-02T09:42:29.004Z,6396
2017-10-02T09:43:39.328Z,6444
2017-10-02T09:44:49.706Z,6476
2017-10-02T09:46:00.110Z,6460
2017-10-02T09:47:10.458Z,6460
2017-10-02T09:48:20.808Z,6460
2017-10-02T09:49:30.849Z,6604
2017-10-02T09:50:41.190Z,6476
2017-10-02T09:51:51.612Z,6512
2017-10-02T09:53:01.988Z,6508
2017-10-02T09:54:12.008Z,6496
2017-10-02T09:55:22.358Z,6536
2017-10-02T09:56:32.703Z,6528
2017-10-02T09:57:42.734Z,6540
2017-10-02T09:58:52.750Z,6544
2017-10-02T10:00:03.090Z,6556
2017-10-02T10:01:13.432Z,6600
2017-10-02T10:02:23.781Z,6556
2017-10-02T10:03:34.161Z,6608
2017-10-02T10:04:44.524Z,6648
2017-10-02T10:05:54.577Z,6628
2017-10-02T10:07:04.936Z,6672
2017-10-02T10:08:14.973Z,6656
2017-10-02T10:09:25.386Z,6652
2017-10-02T10:10:35.740Z,6616
2017-10-02T10:11:46.082Z,6644
2017-10-02T10:12:56.422Z,6672
2017-10-02T10:14:06.770Z,6644
2017-10-02T10:15:17.166Z,6664
2017-10-02T10:16:27.525Z,6620
2017-10-02T10:17:37.568Z,6616
2017-10-02T10:18:47.586Z,6668
2017-10-02T10:19:57.946Z,6680
2017-10-02T10:21:08.347Z,6712
2017-10-02T10:22:18.688Z,6696
2017-10-02T10:23:29.046Z,6684
2017-10-02T10:24:39.400Z,6744
2017-10-02T10:25:49.768Z,6708
2017-10-02T10:27:00.160Z,6668
2017-10-02T10:28:10.500Z,6700
2017-10-02T10:29:20.854Z,6744
2017-10-02T10:30:30.903Z,6692
2017-10-02T10:31:41.285Z,6716
2017-10-02T10:32:51.696Z,6740
2017-10-02T10:34:01.421Z,6704
2017-10-02T10:35:11.780Z,6760
2017-10-02T10:36:22.140Z,6764
2017-10-02T10:37:33.156Z,6776
2017-10-02T10:38:43.580Z,6760
2017-10-02T10:39:53.615Z,6780
2017-10-02T10:41:03.991Z,6808
2017-10-02T10:42:14.327Z,6792
2017-10-02T10:43:24.386Z,6780
2017-10-02T10:44:34.795Z,6764
2017-10-02T10:45:45.174Z,6760
2017-10-02T10:46:55.218Z,6860
2017-10-02T10:48:06.767Z,6868
2017-10-02T10:49:17.126Z,6868
2017-10-02T10:50:27.469Z,6856
2017-10-02T10:51:37.522Z,6880
2017-10-02T10:52:47.860Z,6864
2017-10-02T10:53:58.208Z,6860
2017-10-02T10:55:08.560Z,6796
2017-10-02T10:56:18.972Z,6800
2017-10-02T10:57:28.997Z,6848
2017-10-02T10:58:39.355Z,6856
2017-10-02T10:59:49.715Z,6836
2017-10-02T11:01:00.071Z,6884
2017-10-02T11:02:10.443Z,6828
2017-10-02T11:03:20.790Z,6852
2017-10-02T11:04:31.146Z,6816
2017-10-02T11:05:41.533Z,6896
2017-10-02T11:06:51.888Z,6924
2017-10-02T11:08:02.290Z,6888
2017-10-02T11:09:12.011Z,6900
2017-10-02T11:10:22.355Z,6948
2017-10-02T11:11:32.713Z,6944
2017-10-02T11:12:42.761Z,6984
2017-10-02T11:13:53.107Z,6960
2017-10-02T11:15:03.472Z,6976
2017-10-02T11:16:13.488Z,7012
2017-10-02T11:17:23.535Z,7024
2017-10-02T11:18:32.931Z,7048
2017-10-02T11:19:43.005Z,7064
2017-10-02T11:20:53.370Z,6996
2017-10-02T11:22:03.737Z,7080
2017-10-02T11:23:13.472Z,7100
2017-10-02T11:24:23.816Z,7116
2017-10-02T11:25:34.049Z,7052
2017-10-02T11:26:44.404Z,7108
2017-10-02T11:27:54.755Z,7048
2017-10-02T11:29:05.100Z,7040
2017-10-02T11:30:15.457Z,7152
2017-10-02T11:31:25.547Z,7148
2017-10-02T11:32:35.912Z,7160
2017-10-02T11:33:46.250Z,7132
2017-10-02T11:34:56.295Z,7180
2017-10-02T11:36:06.675Z,7196
2017-10-02T11:37:17.100Z,7200
2017-10-02T11:38:27.124Z,7196
2017-10-02T11:39:37.504Z,7172
2017-10-02T11:40:47.867Z,7188
2017-10-02T11:41:58.250Z,7208
2017-10-02T11:43:08.917Z,7236
2017-10-02T11:44:19.273Z,7256
2017-10-02T11:45:29.636Z,7316
2017-10-02T11:46:39.964Z,7296
2017-10-02T11:47:50.336Z,7324
2017-10-02T11:49:00.667Z,7320
2017-10-02T11:50:11.039Z,7316
2017-10-02T11:51:21.083Z,7400
2017-10-02T11:52:31.431Z,7444
2017-10-02T11:53:41.807Z,7500
2017-10-02T11:54:52.230Z,7540
2017-10-02T11:56:02.580Z,7560
2017-10-02T11:57:12.633Z,7584
2017-10-02T11:58:23.021Z,7564
2017-10-02T11:59:33.371Z,7636
2017-10-02T12:00:43.770Z,7700
2017-10-02T12:01:53.820Z,7656
2017-10-02T12:03:04.169Z,7708
2017-10-02T12:04:14.513Z,7688
2017-10-02T12:05:24.889Z,7712
2017-10-02T12:06:35.289Z,7772
2017-10-02T12:07:45.015Z,7792
2017-10-02T12:08:55.376Z,7828
2017-10-02T12:10:05.718Z,7768
2017-10-02T12:11:15.453Z,7840
2017-10-02T12:12:25.554Z,7760
2017-10-02T12:13:35.907Z,7800
2017-10-02T12:14:46.273Z,7780
2017-10-02T12:15:56.629Z,7812
2017-10-02T12:17:07.013Z,7812
2017-10-02T12:18:17.417Z,7816
2017-10-02T12:19:27.788Z,7852
2017-10-02T12:20:38.149Z,7868
2017-10-02T12:21:48.502Z,7840
2017-10-02T12:22:58.863Z,7760
2017-10-02T12:24:10.048Z,7720
2017-10-02T12:25:20.403Z,7708
2017-10-02T12:26:30.481Z,7644
2017-10-02T12:27:40.188Z,7652
2017-10-02T12:28:50.229Z,7612
2017-10-02T12:30:00.630Z,7500
2017-10-02T12:31:10.986Z,7428
2017-10-02T12:32:21.340Z,7384
2017-10-02T12:33:31.692Z,7344
2017-10-02T12:34:41.735Z,7276
2017-10-02T12:35:52.126Z,7212
2017-10-02T12:37:02.210Z,7096
2017-10-02T12:38:12.585Z,7068
2017-10-02T12:39:22.952Z,7072
2017-10-02T12:40:33.299Z,7020
2017-10-02T12:41:43.401Z,6980
2017-10-02T12:42:53.467Z,6904
2017-10-02T12:44:03.882Z,6860
2017-10-02T12:45:13.939Z,6768
2017-10-02T12:46:24.269Z,6776
2017-10-02T12:47:34.670Z,6812
2017-10-02T12:48:45.037Z,6812
2017-10-02T12:49:55.383Z,6744
2017-10-02T12:51:05.742Z,6676
2017-10-02T12:52:15.803Z,6596
2017-10-02T12:53:25.888Z,6548
2017-10-02T12:54:36.254Z,6424
2017-10-02T12:55:46.634Z,6480
2017-10-02T12:56:57.016Z,6560
2017-10-02T12:58:07.355Z,6556
2017-10-02T12:59:17.434Z,6568
2017-10-02T13:00:27.720Z,6480
2017-10-02T13:01:38.080Z,6508
2017-10-02T13:02:48.461Z,6472
2017-10-02T13:03:58.502Z,6536
2017-10-02T13:05:08.941Z,6480
2017-10-02T13:06:18.977Z,6500
2017-10-02T13:07:29.330Z,6456
2017-10-02T13:08:39.368Z,6472
2017-10-02T13:09:49.716Z,6452
2017-10-02T13:11:00.062Z,6432
2017-10-02T13:12:09.812Z,6396
2017-10-02T13:13:20.188Z,6380
2017-10-02T13:14:30.219Z,6332
2017-10-02T13:15:40.265Z,6320
2017-10-02T13:16:50.662Z,6280
2017-10-02T13:18:00.710Z,6296
2017-10-02T13:19:11.080Z,6288
2017-10-02T13:20:21.449Z,6300
2017-10-02T13:21:31.493Z,6324
2017-10-02T13:22:41.601Z,6284
2017-10-02T13:23:51.944Z,6140
2017-10-02T13:25:02.305Z,6088
2017-10-02T13:26:12.649Z,6052
2017-10-02T13:27:22.661Z,6012
2017-10-02T13:28:33.043Z,6020
2017-10-02T13:29:43.083Z,6048
2017-10-02T13:30:53.453Z,6036
2017-10-02T13:32:03.483Z,5996
2017-10-02T13:33:13.537Z,5884
2017-10-02T13:34:23.941Z,5844
2017-10-02T13:35:33.975Z,5836
2017-10-02T13:36:44.320Z,5784
2017-10-02T13:37:54.643Z,5752
2017-10-02T13:39:05.003Z,5700
2017-10-02T13:40:15.433Z,5688
2017-10-02T13:41:25.457Z,5664
2017-10-02T13:42:35.817Z,5616
2017-10-02T13:43:46.166Z,5584
2017-10-02T13:44:56.190Z,5580
2017-10-02T13:46:06.285Z,5540
2017-10-02T13:47:16.633Z,5520
2017-10-02T13:48:27.024Z,5480
2017-10-02T13:49:37.370Z,5448
2017-10-02T13:50:47.721Z,5416
2017-10-02T13:51:57.747Z,5408
2017-10-02T13:53:08.121Z,5388
2017-10-02T13:54:18.456Z,5312
2017-10-02T13:55:28.821Z,5248
2017-10-02T13:56:39.212Z,5260
2017-10-02T13:57:49.616Z,5232
2017-10-02T13:58:59.988Z,5184
2017-10-02T14:00:10.026Z,5164
2017-10-02T14:01:20.379Z,5124
2017-10-02T14:02:30.737Z,5052
2017-10-02T14:03:40.847Z,5012
2017-10-02T14:04:51.218Z,4964
2017-10-02T14:06:01.564Z,4924
2017-10-02T14:07:12.446Z,4840
2017-10-02T14:08:22.809Z,4832
2017-10-02T14:09:33.221Z,4796
2017-10-02T14:10:43.577Z,4788
2017-10-02T14:11:53.616Z,4736
2017-10-02T14:13:03.995Z,4676
2017-10-02T14:14:14.345Z,4628
2017-10-02T14:15:24.772Z,4632
2017-10-02T14:16:35.369Z,4600
2017-10-02T14:17:45.711Z,4572
2017-10-02T14:18:56.077Z,4524
2017-10-02T14:20:06.431Z,4472
2017-10-02T14:21:16.816Z,4444
2017-10-02T14:22:26.861Z,4388
2017-10-02T14:23:37.222Z,4400
2017-10-02T14:24:47.593Z,4376
2017-10-02T14:25:57.948Z,4340
2017-10-02T14:27:08.297Z,4300
2017-10-02T14:28:18.666Z,4268
2017-10-02T14:29:28.707Z,4252
2017-10-02T14:30:39.058Z,4232
2017-10-02T14:31:49.414Z,4192
2017-10-02T14:32:59.816Z,4140
2017-10-02T14:34:10.210Z,4060
2017-10-02T14:35:20.551Z,3988
2017-10-02T14:36:30.902Z,4000
2017-10-02T14:37:41.236Z,3968
2017-10-02T14:38:50.987Z,3928
2017-10-02T14:40:01.361Z,3924
2017-10-02T14:41:11.381Z,3860
2017-10-02T14:42:21.766Z,3844
2017-10-02T14:43:31.797Z,3812
2017-10-02T14:44:41.821Z,3808
2017-10-02T14:45:51.893Z,3748
2017-10-02T14:47:02.230Z,3672
2017-10-02T14:48:12.271Z,3700
2017-10-02T14:49:22.315Z,3692
2017-10-02T14:50:32.679Z,3636
2017-10-02T14:51:43.099Z,3572
2017-10-02T14:52:52.806Z,3312
2017-10-02T14:54:04.292Z,3336
2017-10-02T14:55:14.346Z,3364
2017-10-02T14:56:24.770Z,3164
2017-10-02T14:57:34.853Z,3144
2017-10-02T14:58:45.212Z,3052
2017-10-02T14:59:55.558Z,2700
2017-10-02T15:01:05.891Z,2556
2017-10-02T15:02:16.236Z,2368
2017-10-02T15:03:26.318Z,2340
2017-10-02T15:04:36.676Z,2480
2017-10-02T15:05:47.025Z,2408
2017-10-02T15:06:57.076Z,2576
2017-10-02T15:08:07.454Z,2796
2017-10-02T15:09:17.841Z,2612
2017-10-02T15:10:28.221Z,2468
2017-10-02T15:11:38.568Z,2396
2017-10-02T15:12:48.923Z,2248
2017-10-02T15:13:59.282Z,2252
2017-10-02T15:15:09.642Z,2504
2017-10-02T15:16:19.917Z,2396
2017-10-02T15:17:29.968Z,2540
2017-10-02T15:18:40.322Z,2392
2017-10-02T15:19:50.038Z,2216
2017-10-02T15:21:00.426Z,1988
2017-10-02T15:22:10.474Z,2100
2017-10-02T15:23:20.820Z,2000
2017-10-02T15:24:31.186Z,1840
2017-10-02T15:25:41.571Z,1728
2017-10-02T15:26:51.649Z,1776
2017-10-02T15:28:02.030Z,1724
2017-10-02T15:29:12.401Z,1672
2017-10-02T15:30:22.752Z,1576
2017-10-02T15:31:33.115Z,1476
2017-10-02T15:32:43.522Z,1380
2017-10-02T15:33:53.856Z,1324
2017-10-02T15:35:04.215Z,1260
2017-10-02T15:36:14.243Z,1212
2017-10-02T15:37:24.280Z,1172
2017-10-02T15:38:34.706Z,1136
2017-10-02T15:39:44.760Z,1096
2017-10-02T15:40:55.117Z,1064
2017-10-02T15:42:05.472Z,1040
2017-10-02T15:43:15.829Z,1020
2017-10-02T15:44:25.921Z,996
2017-10-02T15:45:36.012Z,976
2017-10-02T15:46:46.057Z,960
2017-10-02T15:47:56.108Z,944
2017-10-02T15:49:06.478Z,936
2017-10-02T15:50:16.895Z,932
2017-10-02T15:51:27.251Z,924
2017-10-02T15:52:36.972Z,904
2017-10-02T15:53:47.017Z,888
2017-10-02T15:54:57.384Z,892
2017-10-02T15:56:07.476Z,928
2017-10-02T15:57:17.826Z,940
2017-10-02T15:58:28.185Z,948
2017-10-02T15:59:38.238Z,912
2017-10-02T16:00:48.586Z,872
2017-10-02T16:01:58.980Z,872
2017-10-02T16:03:09.055Z,844
2017-10-02T16:04:19.130Z,776
2017-10-02T16:05:29.224Z,708
2017-10-02T16:06:39.587Z,660
2017-10-02T16:07:50.012Z,616
2017-10-02T16:09:00.165Z,576
2017-10-02T16:10:09.883Z,540
2017-10-02T16:11:20.295Z,504
2017-10-02T16:12:30.667Z,468
2017-10-02T16:13:41.085Z,436
2017-10-02T16:14:51.450Z,408
2017-10-02T16:16:01.837Z,376
2017-10-02T16:17:12.199Z,344
2017-10-02T16:18:22.566Z,312
2017-10-02T16:19:32.636Z,280
2017-10-02T16:20:43.010Z,248
2017-10-02T16:21:53.038Z,220
2017-10-02T16:23:03.435Z,196
2017-10-02T16:24:13.813Z,172
2017-10-02T16:25:23.906Z,152
2017-10-02T16:26:33.979Z,136
2017-10-02T16:27:44.330Z,120
2017-10-02T16:28:54.379Z,104
2017-10-02T16:30:04.760Z,92
2017-10-02T16:31:14.598Z,88
2017-10-02T16:32:24.996Z,76
2017-10-02T16:33:35.385Z,68
2017-10-02T16:34:45.421Z,60